Time;durP1;ratioP1;P1;durP2;ratioP2;P2;SDS_P1;SDS_P2;PMS_P1;PMS_P2;Temp;Humidity;BMP_temperature;BMP_pressure;BME280_temperature;BME280_humidity;BME280_pressure;Samples;Min_cycle;Max_cycle;Signal;HPM_P1;HPM_P2
2023/09/11 00:01:15;;;;;;;16.30;8.88;;;26.30;55.00;;;;;;5054645;28;20302;-27
2023/09/11 00:03:45;;;;;;;13.10;8.18;;;26.20;55.00;;;;;;5047224;28;20220;-27
2023/09/11 00:06:12;;;;;;;12.70;8.65;;;26.20;55.10;;;;;;5046610;28;20216;-28
2023/09/11 00:08:39;;;;;;;11.50;8.70;;;26.20;55.10;;;;;;5061518;28;20202;-28
2023/09/11 00:11:12;;;;;;;10.80;8.50;;;26.20;55.20;;;;;;5061706;28;20584;-29
2023/09/11 00:13:39;;;;;;;13.57;8.40;;;26.10;55.20;;;;;;5061782;28;20231;-29
2023/09/11 00:16:06;;;;;;;10.55;8.35;;;26.10;55.20;;;;;;5044880;28;20330;-30
2023/09/11 00:18:37;;;;;;;10.15;8.18;;;26.10;55.30;;;;;;5046435;28;21229;-29
2023/09/11 00:21:07;;;;;;;10.95;8.48;;;26.00;55.30;;;;;;5028607;28;20289;-29
2023/09/11 00:23:37;;;;;;;12.57;8.60;;;26.00;55.30;;;;;;5046291;28;20749;-28
2023/09/11 00:26:09;;;;;;;11.20;8.80;;;25.90;55.30;;;;;;5046928;28;20702;-28
2023/09/11 00:28:38;;;;;;;12.27;8.38;;;25.90;55.30;;;;;;5061466;28;20297;-28
2023/09/11 00:31:06;;;;;;;12.73;8.77;;;25.90;55.40;;;;;;5054659;28;20293;-29
2023/09/11 00:33:35;;;;;;;10.85;8.57;;;25.80;55.40;;;;;;5066768;28;20199;-29
2023/09/11 00:36:05;;;;;;;14.60;8.48;;;25.80;55.50;;;;;;5065989;28;20587;-29
2023/09/11 00:38:32;;;;;;;11.63;8.52;;;25.80;55.50;;;;;;5080792;28;20816;-29
2023/09/11 00:40:59;;;;;;;12.45;8.93;;;25.70;55.50;;;;;;5078628;28;20213;-29
2023/09/11 00:43:27;;;;;;;9.70;8.07;;;25.70;55.50;;;;;;5065280;28;20358;-29
2023/09/11 00:45:56;;;;;;;13.00;8.52;;;25.70;55.60;;;;;;5067269;28;20207;-29
2023/09/11 00:48:24;;;;;;;11.70;8.65;;;25.60;55.60;;;;;;5066340;28;20370;-29
2023/09/11 00:50:51;;;;;;;10.80;8.73;;;25.60;55.60;;;;;;5063175;28;20204;-28
2023/09/11 00:53:21;;;;;;;12.50;8.52;;;25.50;55.60;;;;;;5065106;28;20277;-30
2023/09/11 00:55:48;;;;;;;12.60;8.68;;;25.50;55.70;;;;;;5058866;28;20266;-29
2023/09/11 00:58:17;;;;;;;12.52;8.80;;;25.50;55.70;;;;;;5064834;28;20645;-25
2023/09/11 01:00:47;;;;;;;12.98;8.52;;;25.50;55.70;;;;;;5067127;28;20218;-25
2023/09/11 01:03:20;;;;;;;11.95;8.32;;;25.40;55.70;;;;;;5077352;28;20219;-25
2023/09/11 01:05:50;;;;;;;11.35;8.30;;;25.40;55.70;;;;;;5079934;28;20199;-24
2023/09/11 01:08:19;;;;;;;14.60;8.27;;;25.40;55.80;;;;;;5047823;28;20800;-24
2023/09/11 01:10:47;;;;;;;13.02;8.00;;;25.30;55.80;;;;;;5048045;28;20219;-28
2023/09/11 01:13:14;;;;;;;10.25;7.72;;;25.30;55.70;;;;;;5067228;28;20803;-28
2023/09/11 01:16:22;;;;;;;12.80;8.32;;;25.20;55.70;;;;;;5066597;28;20570;-29
2023/09/11 01:19:12;;;;;;;9.68;7.75;;;25.20;55.80;;;;;;5049840;28;20634;-30
2023/09/11 01:22:13;;;;;;;12.43;7.80;;;25.20;55.80;;;;;;5053042;28;20226;-29
2023/09/11 01:24:43;;;;;;;13.25;9.07;;;25.10;55.90;;;;;;5067259;28;20553;-29
2023/09/11 01:27:25;;;;;;;10.75;7.80;;;25.10;55.80;;;;;;5066691;28;20835;-28
2023/09/11 01:29:56;;;;;;;18.38;8.68;;;25.00;55.90;;;;;;5081900;28;20207;-29
2023/09/11 01:32:26;;;;;;;9.75;7.93;;;25.00;55.80;;;;;;5083628;28;20753;-29
2023/09/11 01:34:56;;;;;;;13.73;8.45;;;25.00;55.80;;;;;;5085067;28;20198;-29
2023/09/11 01:37:27;;;;;;;10.75;8.07;;;25.00;55.90;;;;;;5083134;28;20202;-28
2023/09/11 01:39:57;;;;;;;11.00;7.85;;;25.00;55.90;;;;;;5083809;28;20600;-28
2023/09/11 01:42:41;;;;;;;10.35;8.07;;;24.90;56.00;;;;;;5083786;28;20199;-29
2023/09/11 01:45:10;;;;;;;10.55;8.27;;;24.90;56.10;;;;;;5085626;28;20702;-29
2023/09/11 01:47:37;;;;;;;9.75;8.75;;;24.90;56.10;;;;;;5085714;28;20289;-28
2023/09/11 01:50:08;;;;;;;11.75;8.32;;;24.80;56.00;;;;;;5082218;28;20517;-29
2023/09/11 01:52:36;;;;;;;11.90;8.45;;;24.80;56.10;;;;;;5067014;28;20218;-28
2023/09/11 01:55:05;;;;;;;12.05;8.73;;;24.80;56.10;;;;;;5075119;28;20265;-28
2023/09/11 01:57:37;;;;;;;13.70;7.50;;;24.80;56.10;;;;;;5047905;28;20293;-28
2023/09/11 02:00:07;;;;;;;11.90;7.88;;;24.80;56.10;;;;;;5065483;28;20288;-29
2023/09/11 02:02:36;;;;;;;14.70;8.43;;;24.80;56.10;;;;;;5064293;28;20330;-29
2023/09/11 02:05:07;;;;;;;17.02;7.90;;;24.80;56.10;;;;;;5046655;28;20673;-29
2023/09/11 02:07:34;;;;;;;10.15;8.27;;;24.80;56.30;;;;;;5046840;28;20302;-28
2023/09/11 02:10:02;;;;;;;13.27;7.60;;;24.70;56.20;;;;;;5069367;28;20481;-29
2023/09/11 02:12:29;;;;;;;11.07;8.05;;;24.70;56.10;;;;;;5067001;28;20644;-28
2023/09/11 02:15:01;;;;;;;13.20;7.93;;;24.70;56.10;;;;;;5068654;28;20222;-29
2023/09/11 02:17:31;;;;;;;9.10;7.13;;;24.70;56.10;;;;;;5067023;28;20294;-29
2023/09/11 02:19:58;;;;;;;10.80;7.90;;;24.70;56.20;;;;;;5069264;28;20222;-29
2023/09/11 02:22:25;;;;;;;12.75;7.50;;;24.60;56.20;;;;;;5050012;28;20299;-29
2023/09/11 02:24:52;;;;;;;10.45;7.57;;;24.60;56.20;;;;;;5054887;28;20706;-29
2023/09/11 02:27:20;;;;;;;10.13;8.13;;;24.60;56.30;;;;;;5070774;28;20675;-29
2023/09/11 02:29:47;;;;;;;10.68;7.53;;;24.60;56.30;;;;;;5087272;28;20211;-29
2023/09/11 02:32:14;;;;;;;9.77;7.57;;;24.60;56.40;;;;;;5068602;28;20629;-29
2023/09/11 02:34:41;;;;;;;10.65;7.93;;;24.60;56.40;;;;;;5068729;28;20218;-29
2023/09/11 02:37:13;;;;;;;12.57;7.68;;;24.50;57.00;;;;;;5068166;28;20732;-29
2023/09/11 02:39:41;;;;;;;11.60;8.10;;;24.50;56.40;;;;;;5068771;28;20206;-29
2023/09/11 02:42:08;;;;;;;9.52;7.82;;;24.50;56.40;;;;;;5068176;28;20336;-29
2023/09/11 02:44:35;;;;;;;11.32;7.53;;;24.50;56.40;;;;;;5068359;28;20253;-29
2023/09/11 02:47:05;;;;;;;11.07;7.75;;;24.50;56.40;;;;;;5067676;28;20218;-29
2023/09/11 02:49:32;;;;;;;12.05;7.82;;;24.50;56.50;;;;;;5068451;28;20677;-29
2023/09/11 02:52:01;;;;;;;8.73;7.53;;;24.40;56.50;;;;;;5049233;28;20282;-29
2023/09/11 02:54:29;;;;;;;11.45;8.00;;;24.40;56.50;;;;;;5068129;28;20706;-29
2023/09/11 02:56:56;;;;;;;15.48;8.07;;;24.40;56.50;;;;;;5068585;28;20284;-28
2023/09/11 02:59:23;;;;;;;10.98;7.68;;;24.40;56.50;;;;;;5068513;28;20348;-29
2023/09/11 03:01:50;;;;;;;11.63;7.57;;;24.40;56.50;;;;;;5049704;28;20243;-28
2023/09/11 03:04:17;;;;;;;10.25;7.38;;;24.30;56.50;;;;;;5066937;28;20237;-28
2023/09/11 03:06:49;;;;;;;12.98;8.38;;;24.30;56.60;;;;;;5078247;28;20812;-29
2023/09/11 03:09:16;;;;;;;11.10;7.72;;;24.30;56.60;;;;;;5085166;28;20250;-29
2023/09/11 03:11:44;;;;;;;10.30;7.82;;;24.20;56.50;;;;;;5071097;28;20211;-29
2023/09/11 03:14:16;;;;;;;11.65;7.68;;;24.20;56.60;;;;;;5066592;28;20207;-29
2023/09/11 03:16:43;;;;;;;11.55;7.43;;;24.20;56.70;;;;;;5067002;28;20529;-29
2023/09/11 03:19:13;;;;;;;12.05;7.90;;;24.20;56.70;;;;;;5066405;28;20227;-29
2023/09/11 03:21:40;;;;;;;12.30;7.82;;;24.10;56.60;;;;;;5047497;28;20302;-29
2023/09/11 03:24:09;;;;;;;12.80;7.78;;;24.10;56.70;;;;;;5066768;28;20736;-29
2023/09/11 03:26:40;;;;;;;10.27;7.50;;;24.10;56.60;;;;;;5064999;28;20302;-29
2023/09/11 03:29:12;;;;;;;10.63;7.97;;;24.00;56.70;;;;;;5066710;28;21069;-29
2023/09/11 03:31:42;;;;;;;12.80;7.95;;;24.00;56.70;;;;;;5066690;28;20361;-28
2023/09/11 03:34:09;;;;;;;10.68;7.80;;;24.00;56.70;;;;;;5066850;28;20751;-29
2023/09/11 03:36:37;;;;;;;14.40;8.43;;;24.00;56.80;;;;;;5072774;28;20210;-29
2023/09/11 03:39:04;;;;;;;12.02;7.70;;;24.00;56.80;;;;;;5068396;28;20264;-29
2023/09/11 03:41:31;;;;;;;10.38;7.40;;;23.90;56.80;;;;;;5078537;28;20216;-29
2023/09/11 03:44:01;;;;;;;11.73;8.23;;;23.90;56.80;;;;;;5066478;28;20238;-28
2023/09/11 03:46:30;;;;;;;14.98;8.20;;;23.90;56.80;;;;;;5066822;28;20272;-28
2023/09/11 03:49:00;;;;;;;14.35;7.63;;;23.80;56.80;;;;;;5067815;28;20646;-28
2023/09/11 03:51:29;;;;;;;9.35;6.85;;;23.80;56.80;;;;;;5085553;28;20195;-28
2023/09/11 03:53:58;;;;;;;9.35;7.75;;;23.80;56.80;;;;;;5067979;28;20851;-29
2023/09/11 03:56:28;;;;;;;9.82;7.80;;;23.80;56.80;;;;;;5067155;28;20238;-29
2023/09/11 03:58:55;;;;;;;11.15;7.88;;;23.80;56.80;;;;;;5086385;28;20211;-29
2023/09/11 04:01:22;;;;;;;12.05;7.78;;;23.80;56.90;;;;;;5044833;28;1124539;-28
2023/09/11 04:03:49;;;;;;;13.45;7.70;;;23.70;56.80;;;;;;5084356;28;20199;-28
2023/09/11 04:06:19;;;;;;;11.73;8.43;;;23.70;56.90;;;;;;5067672;28;20749;-29
2023/09/11 04:08:48;;;;;;;12.57;7.50;;;23.70;56.90;;;;;;5066979;28;20234;-28
2023/09/11 04:11:19;;;;;;;9.50;7.40;;;23.70;57.50;;;;;;5067479;28;20196;-29
2023/09/11 04:13:48;;;;;;;20.27;8.05;;;23.60;56.90;;;;;;5048300;28;20234;-29
2023/09/11 04:16:19;;;;;;;17.00;8.70;;;23.60;56.90;;;;;;5066862;28;20558;-29
2023/09/11 04:18:46;;;;;;;11.60;7.75;;;23.60;57.10;;;;;;5084704;28;20324;-28
2023/09/11 04:21:16;;;;;;;11.30;7.63;;;23.60;57.00;;;;;;5086207;28;20206;-28
2023/09/11 04:23:48;;;;;;;12.50;8.13;;;23.60;57.00;;;;;;5084741;28;20214;-28
2023/09/11 04:26:16;;;;;;;11.30;7.65;;;23.60;57.00;;;;;;5082449;28;20210;-28
2023/09/11 04:28:46;;;;;;;13.80;8.02;;;23.50;57.10;;;;;;5073453;28;20227;-28
2023/09/11 04:31:13;;;;;;;14.25;7.80;;;23.50;57.20;;;;;;5072462;28;20208;-29
2023/09/11 04:33:43;;;;;;;14.23;8.30;;;23.50;57.10;;;;;;5076667;28;20221;-28
2023/09/11 04:36:13;;;;;;;16.52;8.07;;;23.50;57.20;;;;;;5052373;28;20195;-28
2023/09/11 04:38:45;;;;;;;13.20;7.38;;;23.50;57.20;;;;;;5065789;28;20516;-28
2023/09/11 04:41:16;;;;;;;9.38;7.50;;;23.50;57.20;;;;;;5074279;28;20295;-24
2023/09/11 04:43:43;;;;;;;13.93;7.80;;;23.40;57.20;;;;;;5080378;28;20210;-24
2023/09/11 04:46:10;;;;;;;12.75;7.88;;;23.40;57.20;;;;;;5085863;28;20260;-24
2023/09/11 04:48:37;;;;;;;14.25;8.30;;;23.40;57.20;;;;;;5066531;28;20231;-24
2023/09/11 04:51:05;;;;;;;13.73;8.25;;;23.40;57.30;;;;;;5065499;28;20239;-24
2023/09/11 04:53:32;;;;;;;15.73;8.85;;;23.40;57.30;;;;;;5057383;28;20298;-24
2023/09/11 04:56:02;;;;;;;11.98;8.15;;;23.40;57.30;;;;;;5079784;28;20203;-25
2023/09/11 04:58:29;;;;;;;15.57;8.48;;;23.30;57.30;;;;;;5054022;28;20246;-25
2023/09/11 05:00:56;;;;;;;11.35;8.70;;;23.30;57.30;;;;;;5073697;28;20326;-25
2023/09/11 05:03:23;;;;;;;10.48;7.00;;;23.30;57.30;;;;;;5048155;28;20294;-28
2023/09/11 05:05:53;;;;;;;13.73;8.10;;;23.30;57.40;;;;;;5065372;28;20224;-28
2023/09/11 05:08:21;;;;;;;12.25;8.18;;;23.30;57.40;;;;;;5080329;28;20233;-29
2023/09/11 05:10:50;;;;;;;13.45;7.75;;;23.30;57.40;;;;;;5085565;28;20259;-28
2023/09/11 05:13:18;;;;;;;11.88;7.65;;;23.20;57.40;;;;;;5079358;28;20229;-24
2023/09/11 05:15:50;;;;;;;14.10;8.30;;;23.20;57.40;;;;;;5068042;28;20214;-25
2023/09/11 05:18:20;;;;;;;9.93;8.38;;;23.20;57.40;;;;;;5063485;28;20207;-25
2023/09/11 05:20:50;;;;;;;16.80;8.40;;;23.20;57.40;;;;;;5073920;28;20235;-24
2023/09/11 05:23:18;;;;;;;18.25;8.85;;;23.20;57.50;;;;;;5054517;28;20435;-25
2023/09/11 05:25:45;;;;;;;18.27;8.60;;;23.20;57.50;;;;;;5074326;28;20238;-24
2023/09/11 05:28:12;;;;;;;14.93;9.02;;;23.20;57.50;;;;;;5067482;28;20729;-25
2023/09/11 05:30:42;;;;;;;15.95;8.63;;;23.10;57.60;;;;;;5055900;28;20789;-25
2023/09/11 05:33:11;;;;;;;16.38;8.57;;;23.10;57.60;;;;;;5072127;28;20374;-25
2023/09/11 05:35:38;;;;;;;21.20;9.23;;;23.10;57.60;;;;;;5072422;28;20217;-24
2023/09/11 05:38:08;;;;;;;32.90;10.77;;;23.10;57.60;;;;;;5056533;28;20214;-25
2023/09/11 05:40:37;;;;;;;19.83;8.95;;;23.10;57.70;;;;;;5063888;28;20638;-25
2023/09/11 05:43:04;;;;;;;20.90;8.68;;;23.10;57.70;;;;;;5085359;28;20238;-25
2023/09/11 05:45:32;;;;;;;20.13;8.50;;;23.10;57.80;;;;;;5057701;28;20205;-24
2023/09/11 05:47:59;;;;;;;12.13;8.05;;;23.10;57.70;;;;;;5053419;28;20210;-25
2023/09/11 05:50:26;;;;;;;17.83;7.97;;;23.10;57.80;;;;;;5068133;28;20555;-25
2023/09/11 05:52:58;;;;;;;15.38;8.15;;;23.10;57.80;;;;;;5077939;28;20302;-25
2023/09/11 05:55:25;;;;;;;14.02;8.43;;;23.10;57.80;;;;;;5076543;28;20218;-24
2023/09/11 05:58:00;;;;;;;15.82;8.85;;;23.10;57.80;;;;;;5079134;28;20196;-25
2023/09/11 06:00:30;;;;;;;17.65;9.00;;;23.10;57.80;;;;;;5076063;28;20205;-25
2023/09/11 06:02:57;;;;;;;19.13;8.82;;;23.10;57.80;;;;;;5062206;28;20199;-24
2023/09/11 06:05:28;;;;;;;15.45;8.98;;;23.00;57.90;;;;;;5059846;28;20378;-24
2023/09/11 06:07:58;;;;;;;15.32;8.43;;;23.00;57.90;;;;;;5074676;28;20219;-24
2023/09/11 06:10:25;;;;;;;13.43;9.07;;;23.00;57.90;;;;;;5081016;28;20676;-24
2023/09/11 06:12:52;;;;;;;17.33;8.40;;;23.00;57.90;;;;;;5075839;28;20191;-24
2023/09/11 06:15:22;;;;;;;13.23;8.75;;;23.00;57.90;;;;;;5080163;28;20264;-24
2023/09/11 06:17:49;;;;;;;16.98;9.45;;;23.00;58.00;;;;;;5083012;28;20298;-25
2023/09/11 06:20:18;;;;;;;14.23;8.57;;;23.00;57.90;;;;;;5065923;28;20203;-24
2023/09/11 06:22:45;;;;;;;14.45;9.20;;;23.00;58.10;;;;;;5082773;28;20838;-24
2023/09/11 06:25:13;;;;;;;13.38;8.93;;;23.00;58.00;;;;;;5082940;28;20560;-25
2023/09/11 06:27:43;;;;;;;17.58;9.27;;;23.00;58.00;;;;;;5080317;28;20534;-25
2023/09/11 06:30:10;;;;;;;14.35;9.65;;;23.10;58.70;;;;;;5083918;28;20288;-24
2023/09/11 06:32:37;;;;;;;13.52;8.68;;;23.00;58.10;;;;;;5084554;28;20279;-25
2023/09/11 06:35:06;;;;;;;14.73;9.48;;;23.00;58.10;;;;;;5081874;28;20247;-24
2023/09/11 06:37:33;;;;;;;14.70;8.85;;;23.10;58.20;;;;;;5066918;28;20203;-25
2023/09/11 06:40:00;;;;;;;15.63;9.88;;;23.00;58.10;;;;;;5066312;28;20567;-24
2023/09/11 06:42:30;;;;;;;15.20;10.05;;;23.10;58.30;;;;;;5029884;28;20238;-24
2023/09/11 06:44:59;;;;;;;17.25;9.55;;;23.10;58.30;;;;;;5064684;28;20249;-25
2023/09/11 06:47:26;;;;;;;21.83;10.30;;;23.10;58.50;;;;;;5079996;28;20218;-24
2023/09/11 06:49:59;;;;;;;24.23;10.93;;;23.10;58.50;;;;;;5082198;28;20227;-24
2023/09/11 06:52:28;;;;;;;21.13;11.68;;;23.10;58.40;;;;;;5072652;28;20959;-24
2023/09/11 06:54:58;;;;;;;18.98;10.07;;;23.20;58.50;;;;;;5082039;28;20297;-26
2023/09/11 06:57:30;;;;;;;20.48;10.35;;;23.20;58.40;;;;;;5085860;28;20283;-25
2023/09/11 06:59:57;;;;;;;15.13;10.23;;;23.20;58.50;;;;;;5071748;28;20212;-25
2023/09/11 07:02:29;;;;;;;19.80;9.95;;;23.30;58.60;;;;;;5076686;28;20540;-25
2023/09/11 07:04:58;;;;;;;19.30;10.30;;;23.30;58.60;;;;;;5084997;28;20198;-25
2023/09/11 07:07:28;;;;;;;23.38;11.32;;;23.30;58.60;;;;;;5071224;28;20711;-25
2023/09/11 07:10:00;;;;;;;17.65;11.27;;;23.30;58.60;;;;;;5068807;28;20555;-29
2023/09/11 07:12:29;;;;;;;19.55;10.20;;;23.40;58.70;;;;;;5066865;28;20294;-30
2023/09/11 07:14:59;;;;;;;19.98;11.52;;;23.40;58.70;;;;;;5067350;28;20275;-31
2023/09/11 07:17:28;;;;;;;18.45;10.13;;;23.50;58.70;;;;;;5068921;28;20629;-31
2023/09/11 07:19:56;;;;;;;21.80;11.63;;;23.50;58.70;;;;;;5076631;28;20256;-30
2023/09/11 07:22:25;;;;;;;22.90;12.32;;;23.50;58.70;;;;;;5073847;28;20293;-31
2023/09/11 07:24:57;;;;;;;20.02;12.23;;;23.60;58.80;;;;;;5067550;28;20330;-29
2023/09/11 07:27:32;;;;;;;18.90;11.63;;;23.60;58.80;;;;;;5067361;28;20628;-30
2023/09/11 07:30:06;;;;;;;17.38;12.10;;;23.60;58.80;;;;;;5079798;28;20604;-30
2023/09/11 07:32:33;;;;;;;18.98;12.43;;;23.60;58.80;;;;;;5079507;28;20310;-29
2023/09/11 07:35:00;;;;;;;23.15;14.35;;;23.70;58.90;;;;;;5080125;28;20541;-32
2023/09/11 07:37:30;;;;;;;22.58;13.02;;;23.70;58.90;;;;;;5062783;28;20199;-32
2023/09/11 07:39:57;;;;;;;21.40;12.00;;;23.80;59.00;;;;;;5073455;28;20235;-31
2023/09/11 07:42:25;;;;;;;17.95;12.23;;;23.80;59.00;;;;;;5083560;28;20257;-32
2023/09/11 07:44:54;;;;;;;24.75;11.27;;;23.90;59.00;;;;;;5076642;28;20215;-32
2023/09/11 07:47:23;;;;;;;22.27;12.65;;;23.90;59.00;;;;;;5054603;28;20365;-32
2023/09/11 07:49:51;;;;;;;18.50;12.35;;;24.00;59.00;;;;;;5066759;28;20227;-34
2023/09/11 07:52:20;;;;;;;18.02;12.00;;;24.00;59.10;;;;;;5066315;28;20277;-33
2023/09/11 07:54:47;;;;;;;22.80;12.80;;;24.10;59.10;;;;;;5067012;28;20741;-24
2023/09/11 07:57:14;;;;;;;21.00;12.35;;;24.10;59.10;;;;;;5073749;28;20203;-24
2023/09/11 07:59:44;;;;;;;21.88;12.38;;;24.20;59.20;;;;;;5075504;28;20302;-35
2023/09/11 08:02:11;;;;;;;14.18;9.75;;;24.20;59.20;;;;;;5068467;28;20267;-33
2023/09/11 08:04:39;;;;;;;23.55;11.52;;;24.30;59.10;;;;;;5066665;28;20640;-34
2023/09/11 08:07:09;;;;;;;16.02;10.02;;;24.30;59.70;;;;;;5080585;28;20198;-34
2023/09/11 08:09:38;;;;;;;14.63;9.85;;;24.40;59.10;;;;;;5079930;28;20231;-36
2023/09/11 08:12:08;;;;;;;17.20;10.77;;;24.40;59.10;;;;;;5081259;28;20210;-31
2023/09/11 08:14:36;;;;;;;15.10;10.15;;;24.50;59.10;;;;;;5050929;28;20208;-32
2023/09/11 08:17:03;;;;;;;13.65;10.15;;;24.50;59.10;;;;;;5055395;28;20215;-30
2023/09/11 08:19:30;;;;;;;15.35;8.95;;;24.50;59.00;;;;;;5084740;28;20696;-32
2023/09/11 08:22:00;;;;;;;13.35;8.38;;;24.60;59.20;;;;;;5085420;28;20760;-31
2023/09/11 08:24:32;;;;;;;14.15;8.82;;;24.60;59.10;;;;;;5086850;28;20206;-30
2023/09/11 08:27:03;;;;;;;19.77;9.10;;;24.60;59.00;;;;;;5052226;28;20740;-31
2023/09/11 08:29:31;;;;;;;15.98;10.02;;;24.70;59.10;;;;;;5081771;28;20253;-31
2023/09/11 08:31:58;;;;;;;18.92;8.90;;;24.70;59.10;;;;;;5082877;28;20546;-30
2023/09/11 08:34:25;;;;;;;9.18;6.28;;;24.70;59.20;;;;;;5084760;28;20274;-31
2023/09/11 08:36:54;;;;;;;13.82;6.72;;;24.80;59.20;;;;;;5084178;28;20662;-31
2023/09/11 08:39:25;;;;;;;11.57;6.82;;;24.90;59.10;;;;;;5069698;28;20212;-31
2023/09/11 08:41:54;;;;;;;35.78;9.18;;;24.90;58.90;;;;;;5066640;28;20717;-30
2023/09/11 08:44:23;;;;;;;17.95;6.85;;;24.90;58.80;;;;;;5063739;28;20230;-30
2023/09/11 08:46:53;;;;;;;18.85;6.85;;;25.00;58.80;;;;;;5073500;28;20200;-31
2023/09/11 08:49:28;;;;;;;8.10;6.50;;;25.00;58.70;;;;;;5076546;28;20223;-32
2023/09/11 08:52:01;;;;;;;12.23;6.82;;;25.00;59.40;;;;;;5072073;28;20211;-32
2023/09/11 08:54:37;;;;;;;13.77;6.82;;;25.00;58.70;;;;;;5084475;28;20293;-33
2023/09/11 08:57:10;;;;;;;29.08;8.18;;;25.00;58.70;;;;;;5084026;28;20222;-25
2023/09/11 08:59:44;;;;;;;22.13;9.00;;;25.00;58.70;;;;;;5067777;28;20205;-24
2023/09/11 09:02:12;;;;;;;15.20;7.13;;;25.10;58.80;;;;;;5068158;28;20235;-23
2023/09/11 09:04:40;;;;;;;11.48;6.55;;;25.10;58.70;;;;;;5066724;28;20252;-24
2023/09/11 09:07:09;;;;;;;17.63;7.00;;;25.10;58.70;;;;;;5057025;28;20207;-24
2023/09/11 09:09:38;;;;;;;11.50;7.00;;;25.20;58.70;;;;;;5049599;28;20228;-24
2023/09/11 09:12:08;;;;;;;13.15;7.20;;;25.20;58.70;;;;;;5071152;28;20219;-31
2023/09/11 09:14:38;;;;;;;15.80;7.53;;;25.20;58.60;;;;;;5082566;28;20213;-31
2023/09/11 09:17:06;;;;;;;12.85;6.57;;;25.30;58.80;;;;;;5075837;28;20717;-31
2023/09/11 09:19:34;;;;;;;14.90;7.80;;;25.30;58.80;;;;;;5068488;28;20580;-30
2023/09/11 09:22:07;;;;;;;12.43;7.90;;;25.30;58.70;;;;;;5061813;28;20666;-30
2023/09/11 09:24:35;;;;;;;14.70;8.13;;;25.40;58.70;;;;;;5047379;28;20689;-30
2023/09/11 09:27:05;;;;;;;17.40;7.60;;;25.40;58.70;;;;;;5064353;28;20249;-30
2023/09/11 09:29:37;;;;;;;18.25;8.48;;;25.50;58.70;;;;;;5045534;28;20215;-30
2023/09/11 09:32:08;;;;;;;13.05;7.43;;;25.50;58.70;;;;;;5070835;28;20283;-30
2023/09/11 09:34:44;;;;;;;17.20;7.47;;;25.60;58.70;;;;;;5067566;28;20203;-30
2023/09/11 09:37:19;;;;;;;14.73;7.82;;;25.60;58.70;;;;;;5044567;28;20585;-30
2023/09/11 09:39:50;;;;;;;12.63;6.85;;;25.60;58.70;;;;;;5074220;28;20387;-30
2023/09/11 09:42:20;;;;;;;10.88;7.50;;;25.70;58.70;;;;;;5065461;28;20739;-30
2023/09/11 09:44:55;;;;;;;14.40;7.05;;;25.70;58.60;;;;;;5081962;28;20214;-31
2023/09/11 09:47:25;;;;;;;14.88;6.63;;;25.80;58.70;;;;;;5068601;28;20620;-30
2023/09/11 09:49:58;;;;;;;11.48;7.05;;;25.80;58.60;;;;;;5076894;28;20218;-30
2023/09/11 09:52:27;;;;;;;13.63;6.75;;;25.80;58.50;;;;;;5058948;28;20195;-30
2023/09/11 09:54:57;;;;;;;8.13;5.90;;;25.90;58.60;;;;;;5053659;28;20300;-30
2023/09/11 09:57:26;;;;;;;9.02;5.55;;;25.90;58.60;;;;;;5064988;28;20236;-30
2023/09/11 09:59:59;;;;;;;12.25;5.82;;;25.90;58.60;;;;;;5052379;28;20211;-30
2023/09/11 10:02:37;;;;;;;12.85;5.97;;;26.00;58.50;;;;;;5059868;28;20425;-29
2023/09/11 10:05:07;;;;;;;10.38;5.93;;;26.10;58.50;;;;;;5042986;28;20246;-29
2023/09/11 10:07:40;;;;;;;12.55;6.00;;;26.10;58.40;;;;;;5058862;28;20630;-30
2023/09/11 10:10:30;;;;;;;11.73;5.25;;;26.10;58.30;;;;;;5056900;28;20231;-29
2023/09/11 10:13:15;;;;;;;7.57;5.25;;;26.10;58.20;;;;;;5058874;28;20225;-30
2023/09/11 10:15:44;;;;;;;8.43;5.93;;;26.10;58.20;;;;;;5062494;28;20257;-29
2023/09/11 10:18:13;;;;;;;9.85;5.63;;;26.10;58.20;;;;;;5051826;28;20207;-29
2023/09/11 10:20:40;;;;;;;11.10;5.82;;;26.20;58.30;;;;;;5048379;28;20199;-29
2023/09/11 10:23:09;;;;;;;9.82;6.20;;;26.20;58.40;;;;;;5059371;28;20211;-29
2023/09/11 10:25:49;;;;;;;11.90;5.10;;;26.20;58.30;;;;;;5079661;28;20216;-29
2023/09/11 10:28:32;;;;;;;7.68;5.60;;;26.30;58.30;;;;;;5063011;28;20249;-29
2023/09/11 10:31:12;;;;;;;6.95;5.00;;;26.30;58.20;;;;;;5056259;28;20239;-29
2023/09/11 10:33:45;;;;;;;12.27;5.65;;;26.30;58.10;;;;;;5058461;28;20200;-29
2023/09/11 10:36:20;;;;;;;8.50;5.78;;;26.30;58.70;;;;;;5065286;28;20215;-30
2023/09/11 10:38:50;;;;;;;10.65;5.40;;;26.40;58.10;;;;;;5069877;28;20223;-30
2023/09/11 10:41:18;;;;;;;12.63;6.20;;;26.40;58.10;;;;;;5060890;28;20732;-29
2023/09/11 10:43:47;;;;;;;7.13;5.45;;;26.40;58.10;;;;;;5056172;28;20208;-29
2023/09/11 10:46:31;;;;;;;10.85;5.30;;;26.40;58.00;;;;;;5062162;28;20211;-29
2023/09/11 10:48:59;;;;;;;13.00;5.82;;;26.50;58.00;;;;;;5049445;28;20212;-29
2023/09/11 10:51:30;;;;;;;10.23;5.78;;;26.50;58.10;;;;;;5059435;28;20305;-29
2023/09/11 10:53:59;;;;;;;9.07;5.47;;;26.50;58.00;;;;;;5063433;28;20737;-29
2023/09/11 10:56:37;;;;;;;11.77;5.80;;;26.60;58.10;;;;;;5069664;28;20249;-30
2023/09/11 10:59:04;;;;;;;10.00;5.50;;;26.60;58.00;;;;;;5064082;28;20269;-29
2023/09/11 11:01:35;;;;;;;8.90;4.93;;;26.70;58.00;;;;;;5072272;28;20355;-29
2023/09/11 11:04:12;;;;;;;11.38;5.28;;;26.70;58.00;;;;;;5069250;28;20294;-29
2023/09/11 11:06:53;;;;;;;8.73;4.82;;;26.70;58.00;;;;;;5065342;28;20353;-30
2023/09/11 11:09:37;;;;;;;10.02;4.88;;;26.70;57.80;;;;;;5076394;28;20239;-25
2023/09/11 11:12:13;;;;;;;8.00;4.90;;;26.80;57.90;;;;;;5067933;28;20845;-25
2023/09/11 11:15:03;;;;;;;13.10;5.55;;;26.80;57.80;;;;;;5067199;28;20302;-25
2023/09/11 11:17:40;;;;;;;11.43;5.40;;;26.80;57.70;;;;;;5076707;28;20700;-25
2023/09/11 11:20:11;;;;;;;7.50;4.65;;;26.80;57.70;;;;;;5072165;28;20211;-25
2023/09/11 11:22:44;;;;;;;9.93;5.32;;;26.90;57.90;;;;;;5087216;28;20207;-25
2023/09/11 11:25:17;;;;;;;7.63;5.10;;;26.90;57.80;;;;;;5084006;28;20265;-26
2023/09/11 11:27:45;;;;;;;9.50;4.95;;;26.90;57.70;;;;;;5082824;28;20201;-26
2023/09/11 11:30:12;;;;;;;10.02;5.30;;;27.00;57.80;;;;;;5073992;28;20268;-25
2023/09/11 11:32:42;;;;;;;7.57;4.82;;;27.00;57.80;;;;;;5087964;28;20215;-25
2023/09/11 11:35:10;;;;;;;10.68;5.25;;;27.00;57.80;;;;;;5086325;28;20231;-25
2023/09/11 11:37:44;;;;;;;11.07;5.57;;;27.10;57.80;;;;;;5083997;28;20206;-25
2023/09/11 11:40:13;;;;;;;10.32;5.15;;;27.10;57.70;;;;;;5075407;28;20229;-25
2023/09/11 11:42:41;;;;;;;9.38;4.90;;;27.20;57.90;;;;;;5067039;28;20310;-25
2023/09/11 11:45:13;;;;;;;7.30;4.88;;;27.20;57.60;;;;;;5067395;28;20627;-25
2023/09/11 11:47:43;;;;;;;7.55;5.03;;;27.20;57.40;;;;;;5081204;28;20222;-25
2023/09/11 11:50:11;;;;;;;10.48;5.05;;;27.20;57.50;;;;;;5070559;28;20230;-25
2023/09/11 11:52:45;;;;;;;8.57;5.90;;;27.30;57.50;;;;;;5086332;28;20205;-25
2023/09/11 11:55:20;;;;;;;10.70;5.75;;;27.30;57.30;;;;;;5055862;28;20207;-25
2023/09/11 11:57:54;;;;;;;8.90;5.60;;;27.30;57.20;;;;;;5048625;28;20307;-25
2023/09/11 12:00:24;;;;;;;11.48;5.38;;;27.30;57.10;;;;;;5074692;28;20210;-25
2023/09/11 12:03:01;;;;;;;9.07;5.28;;;27.30;57.10;;;;;;5054102;28;20655;-25
2023/09/11 12:05:31;;;;;;;8.52;5.03;;;27.40;57.30;;;;;;5058141;28;20214;-25
2023/09/11 12:07:59;;;;;;;7.85;4.95;;;27.40;57.20;;;;;;5066467;28;20653;-25
2023/09/11 12:10:31;;;;;;;11.82;5.20;;;27.40;57.20;;;;;;5047464;28;20612;-25
2023/09/11 12:13:03;;;;;;;8.63;5.00;;;27.50;56.80;;;;;;5049179;28;20206;-25
2023/09/11 12:15:36;;;;;;;10.18;5.25;;;27.50;56.70;;;;;;5077244;28;20297;-25
2023/09/11 12:18:05;;;;;;;9.85;5.00;;;27.50;56.70;;;;;;5075769;28;20542;-25
2023/09/11 12:20:32;;;;;;;9.80;4.97;;;27.50;56.60;;;;;;5052036;28;20325;-25
2023/09/11 12:23:02;;;;;;;7.28;4.45;;;27.50;56.70;;;;;;5072843;28;20211;-25
2023/09/11 12:25:32;;;;;;;8.50;5.10;;;27.50;56.60;;;;;;5085124;28;20489;-25
2023/09/11 12:27:59;;;;;;;6.43;4.05;;;27.60;56.20;;;;;;5078824;28;20199;-25
2023/09/11 12:30:29;;;;;;;8.90;4.50;;;27.60;56.70;;;;;;5075755;28;20226;-25
2023/09/11 12:32:57;;;;;;;12.32;5.15;;;27.70;56.90;;;;;;5067034;28;20805;-25
2023/09/11 12:35:38;;;;;;;9.13;5.35;;;27.70;56.20;;;;;;5077824;28;20265;-24
2023/09/11 12:38:10;;;;;;;10.88;4.80;;;27.70;56.30;;;;;;5075906;28;20346;-24
2023/09/11 12:40:43;;;;;;;8.02;4.25;;;27.80;56.30;;;;;;5070880;28;20522;-24
2023/09/11 12:43:11;;;;;;;7.85;4.55;;;27.80;56.40;;;;;;5086053;28;20246;-24
2023/09/11 12:45:41;;;;;;;7.32;4.13;;;27.80;56.50;;;;;;5068909;28;20212;-24
2023/09/11 12:48:08;;;;;;;7.15;4.55;;;27.90;56.50;;;;;;5077162;28;20666;-24
2023/09/11 12:50:41;;;;;;;10.68;4.30;;;27.90;56.50;;;;;;5069183;28;20681;-24
2023/09/11 12:53:09;;;;;;;9.57;4.38;;;27.90;56.30;;;;;;5076604;28;20227;-24